Time;durP1;ratioP1;P1;durP2;ratioP2;P2;SDS_P1;SDS_P2;PMS_P1;PMS_P2;Temp;Humidity;BMP_temperature;BMP_pressure;BME280_temperature;BME280_humidity;BME280_pressure;Samples;Min_cycle;Max_cycle;Signal;HPM_P1;HPM_P2
2022/05/22 00:02:17;;;;;;;6.60;4.70;;;11.40;99.90;;;10.84;100.00;97594.50;5039218;27;129954;-72
2022/05/22 00:04:47;;;;;;;6.35;4.60;;;11.40;99.90;;;10.75;100.00;97603.66;5039465;27;120293;-73
2022/05/22 00:07:16;;;;;;;6.30;4.47;;;11.40;99.90;;;10.77;100.00;97598.66;5041527;27;118925;-76
2022/05/22 00:09:44;;;;;;;6.00;3.97;;;11.40;99.90;;;10.81;100.00;97606.06;5038930;27;131122;-73
2022/05/22 00:12:15;;;;;;;5.70;3.85;;;11.40;99.90;;;10.84;100.00;97605.34;5038957;27;129992;-76
2022/05/22 00:14:43;;;;;;;6.00;4.18;;;11.40;99.90;;;10.78;100.00;97597.50;5037949;27;121573;-73
2022/05/22 00:17:12;;;;;;;6.68;4.18;;;11.40;99.90;;;10.75;100.00;97606.38;5037610;27;121742;-71
2022/05/22 00:19:41;;;;;;;7.32;4.15;;;11.40;99.90;;;10.75;100.00;97614.50;5039154;27;130732;-74
2022/05/22 00:22:11;;;;;;;5.63;3.97;;;11.40;99.90;;;10.76;100.00;97599.78;5038722;27;130653;-74
2022/05/22 00:24:39;;;;;;;6.68;4.25;;;11.40;99.90;;;10.79;100.00;97604.50;5039423;27;119850;-73
2022/05/22 00:27:08;;;;;;;7.38;4.85;;;11.40;99.90;;;10.91;100.00;97602.78;5039311;27;119361;-75
2022/05/22 00:29:38;;;;;;;6.57;4.60;;;11.30;99.90;;;10.82;100.00;97613.84;5038578;27;129882;-73
2022/05/22 00:32:09;;;;;;;6.70;4.18;;;11.30;99.90;;;10.85;100.00;97612.38;5024338;27;129117;-74
2022/05/22 00:34:39;;;;;;;6.55;4.72;;;11.30;99.90;;;10.86;100.00;97608.47;5024280;27;118669;-76
2022/05/22 00:37:07;;;;;;;6.47;4.38;;;11.30;99.90;;;10.83;100.00;97611.91;5040765;27;118643;-75
2022/05/22 00:39:37;;;;;;;5.97;3.13;;;11.20;99.90;;;10.86;100.00;97613.91;5037552;27;130819;-74
2022/05/22 00:42:16;;;;;;;4.32;2.63;;;11.10;99.90;;;10.82;100.00;97613.84;5040649;27;129931;-76
2022/05/22 00:44:46;;;;;;;4.65;2.65;;;10.90;99.90;;;10.73;100.00;97622.19;5024067;27;119125;-72
2022/05/22 00:47:15;;;;;;;4.35;2.40;;;10.90;99.90;;;10.67;100.00;97623.63;5039323;27;119812;-75
2022/05/22 00:49:46;;;;;;;3.15;1.98;;;10.90;99.90;;;10.65;100.00;97615.06;5037264;27;129852;-77
2022/05/22 00:52:22;;;;;;;5.15;2.20;;;10.90;99.90;;;10.55;100.00;97624.56;5040324;27;129528;-75
2022/05/22 00:54:56;;;;;;;;;;;10.90;99.90;;;10.48;100.00;97620.94;5054872;27;119886;-75
2022/05/22 00:57:31;;;;;;;4.30;2.20;;;10.80;99.90;;;10.48;100.00;97620.94;5040435;27;118143;-72
2022/05/22 01:00:07;;;;;;;4.10;2.50;;;10.80;99.90;;;10.41;100.00;97625.06;5036700;27;130921;-76
2022/05/22 01:05:18;;;;;;;4.50;2.60;;;10.80;99.90;;;10.46;100.00;97623.22;5039085;27;122087;-78
2022/05/22 01:07:47;;;;;;;4.32;2.42;;;10.80;99.90;;;10.34;100.00;97638.47;5040349;27;121605;-74
2022/05/22 01:10:17;;;;;;;4.65;2.72;;;10.70;99.90;;;10.38;100.00;97639.34;5036724;27;130113;-74
2022/05/22 01:12:48;;;;;;;5.47;2.92;;;10.70;99.90;;;10.35;100.00;97634.63;5040080;27;129678;-74
2022/05/22 01:15:17;;;;;;;5.88;3.10;;;10.70;99.90;;;10.29;100.00;97641.44;5023749;27;119653;-75
2022/05/22 01:17:48;;;;;;;4.60;2.90;;;10.60;99.90;;;10.22;100.00;97641.28;5037226;27;119501;-76
2022/05/22 01:20:18;;;;;;;3.55;2.20;;;10.60;99.90;;;10.17;100.00;97634.19;5036245;27;130216;-75
2022/05/22 01:22:48;;;;;;;4.22;1.90;;;10.50;99.90;;;10.03;100.00;97645.50;5038532;27;130056;-73
2022/05/22 01:25:18;;;;;;;3.40;1.83;;;10.40;99.90;;;9.96;100.00;97644.59;5023393;27;119110;-71
2022/05/22 01:27:46;;;;;;;1.77;1.15;;;10.30;99.90;;;9.84;100.00;97637.34;5040123;27;119395;-72
2022/05/22 01:30:24;;;;;;;2.40;1.35;;;10.20;99.90;;;9.87;100.00;97647.47;5035323;27;130633;-70
2022/05/22 01:33:06;;;;;;;3.05;1.50;;;10.20;99.90;;;9.86;100.00;97651.31;5037657;27;129942;-70
2022/05/22 01:35:36;;;;;;;1.60;1.25;;;10.20;99.90;;;9.82;100.00;97653.16;5039886;27;119214;-71
2022/05/22 01:38:09;;;;;;;1.73;1.25;;;10.20;99.90;;;9.76;100.00;97652.63;5036793;27;120076;-71
2022/05/22 01:40:42;;;;;;;2.42;1.25;;;10.10;99.90;;;9.71;100.00;97664.53;5036695;27;130140;-75
2022/05/22 01:43:11;;;;;;;2.20;1.27;;;10.10;99.90;;;9.70;100.00;97662.16;5036209;27;129331;-72
2022/05/22 01:45:43;;;;;;;2.25;1.20;;;10.10;99.90;;;9.63;100.00;97654.66;5023071;27;119362;-72
2022/05/22 01:48:12;;;;;;;2.30;1.20;;;10.00;99.90;;;9.65;100.00;97660.50;5038000;27;119633;-73
2022/05/22 01:50:45;;;;;;;1.30;1.20;;;10.00;99.90;;;9.58;100.00;97662.25;5022094;27;129715;-72
2022/05/22 01:53:16;;;;;;;1.40;1.20;;;10.00;99.90;;;9.58;100.00;97671.16;5036127;27;129875;-72
2022/05/22 01:55:48;;;;;;;1.67;1.05;;;10.00;99.90;;;9.57;100.00;97661.47;5021677;27;120978;-71
2022/05/22 01:58:16;;;;;;;1.83;1.20;;;9.90;99.90;;;9.58;100.00;97664.97;5039218;27;126175;-71
2022/05/22 02:00:47;;;;;;;2.03;1.33;;;9.90;99.90;;;9.56;100.00;97659.91;5036179;27;131375;-75
2022/05/22 02:03:15;;;;;;;1.98;1.38;;;9.90;99.90;;;9.55;100.00;97663.72;5036453;27;131818;-72
2022/05/22 02:05:44;;;;;;;1.67;1.20;;;9.90;99.90;;;9.51;100.00;97658.22;5053369;27;121079;-73
2022/05/22 02:08:22;;;;;;;1.63;1.10;;;9.90;99.90;;;9.33;100.00;97668.63;5039717;27;119279;-71
2022/05/22 02:11:00;;;;;;;1.52;1.10;;;9.80;99.90;;;9.32;100.00;97668.97;5035572;27;129786;-72
2022/05/22 02:13:34;;;;;;;1.45;1.20;;;9.80;99.90;;;9.27;100.00;97675.44;5042127;27;129350;-73
2022/05/22 02:16:03;;;;;;;2.75;1.20;;;9.80;99.90;;;9.22;100.00;97667.53;5041070;27;120220;-70
2022/05/22 02:18:33;;;;;;;1.58;1.13;;;9.80;99.90;;;9.21;100.00;97666.00;5039693;27;120399;-73
2022/05/22 02:21:02;;;;;;;1.60;1.10;;;9.80;99.90;;;9.23;100.00;97666.41;5041332;27;129525;-74
2022/05/22 02:23:34;;;;;;;1.08;0.88;;;9.80;99.90;;;9.19;100.00;97668.25;5042608;27;129642;-73
2022/05/22 02:26:10;;;;;;;1.05;0.98;;;9.80;99.90;;;9.17;100.00;97678.63;5040024;27;120219;-68
2022/05/22 02:28:39;;;;;;;1.60;1.20;;;9.80;99.90;;;9.18;100.00;97677.50;5041151;27;119816;-72
2022/05/22 02:31:09;;;;;;;1.77;1.25;;;9.80;99.90;;;9.24;100.00;97681.53;5039298;27;130043;-75
2022/05/22 02:33:38;;;;;;;3.45;1.30;;;9.80;99.90;;;9.31;100.00;97687.13;5025580;27;128563;-77
2022/05/22 02:36:13;;;;;;;2.10;1.45;;;9.90;99.90;;;9.29;100.00;97681.28;5042549;27;119182;-75
2022/05/22 02:38:43;;;;;;;2.72;1.30;;;9.80;99.90;;;9.29;100.00;97689.41;5026254;27;118013;-75
2022/05/22 02:41:18;;;;;;;1.77;1.30;;;9.80;99.90;;;9.24;100.00;97692.38;5025322;27;128805;-74
2022/05/22 02:44:07;;;;;;;1.67;1.30;;;9.90;99.90;;;9.29;100.00;97697.53;5042917;27;129434;-77
2022/05/22 02:46:35;;;;;;;1.90;1.20;;;9.90;99.90;;;9.27;100.00;97701.69;5041244;27;123386;-72
2022/05/22 02:49:05;;;;;;;2.40;1.55;;;9.80;99.90;;;9.18;100.00;97694.53;5039319;27;121859;-74
2022/05/22 02:51:38;;;;;;;2.05;1.40;;;9.80;99.90;;;9.23;100.00;97690.00;5041968;27;129730;-73
2022/05/22 02:54:07;;;;;;;1.83;1.30;;;9.80;99.90;;;9.29;100.00;97700.22;5041911;27;129866;-74
2022/05/22 02:56:55;;;;;;;2.00;1.40;;;9.80;99.90;;;9.31;100.00;97702.59;5040295;27;119654;-72
2022/05/22 02:59:35;;;;;;;2.38;1.40;;;9.80;99.90;;;9.35;100.00;97700.78;5039400;27;119759;-72
2022/05/22 03:02:33;;;;;;;2.33;1.50;;;9.80;99.90;;;9.35;100.00;97698.06;5031979;27;129594;-75
2022/05/22 03:05:02;;;;;;;2.60;1.48;;;9.80;99.90;;;9.38;100.00;97704.69;5038902;27;129749;-73
2022/05/22 03:07:31;;;;;;;2.75;1.40;;;9.80;99.90;;;9.40;100.00;97699.72;5025383;27;118656;-76
2022/05/22 03:10:19;;;;;;;2.10;1.55;;;9.80;99.90;;;9.45;100.00;97713.00;5041851;27;119410;-75
2022/05/22 03:12:50;;;;;;;3.70;1.80;;;9.80;99.90;;;9.44;100.00;97708.72;5023876;27;130749;-78
2022/05/22 03:15:28;;;;;;;2.70;1.65;;;9.80;99.90;;;9.45;100.00;97713.00;5038780;27;130657;-79
2022/05/22 03:17:57;;;;;;;3.70;1.50;;;9.80;99.90;;;9.43;100.00;97715.28;5039090;27;120942;-72
2022/05/22 03:20:26;;;;;;;3.05;1.55;;;9.80;99.90;;;9.47;100.00;97726.97;5055538;27;119939;-73
2022/05/22 03:22:55;;;;;;;2.80;1.60;;;9.80;99.90;;;9.39;100.00;97719.81;5038543;27;130898;-71
2022/05/22 03:25:24;;;;;;;2.78;1.70;;;9.80;99.90;;;9.35;100.00;97720.50;5023699;27;128780;-79
2022/05/22 03:27:53;;;;;;;2.00;1.33;;;9.80;99.90;;;9.33;100.00;97722.78;5024913;27;119250;-72
2022/05/22 03:30:23;;;;;;;2.58;1.50;;;9.80;99.90;;;9.39;100.00;97728.69;5038665;27;119507;-74
2022/05/22 03:33:10;;;;;;;1.35;1.20;;;9.80;99.90;;;9.45;100.00;97730.03;5041272;27;129405;-73
2022/05/22 03:35:45;;;;;;;3.60;1.77;;;9.80;99.90;;;9.50;100.00;97732.47;5039599;27;129520;-73
2022/05/22 03:38:14;;;;;;;2.05;1.30;;;9.80;99.90;;;9.48;100.00;97733.97;5037471;27;121983;-71
2022/05/22 03:40:46;;;;;;;1.75;1.25;;;9.80;99.90;;;9.22;100.00;97735.22;5039670;27;122644;-75
2022/05/22 03:43:18;;;;;;;1.88;1.30;;;9.80;99.90;;;9.17;100.00;97732.75;5037782;27;130809;-71
2022/05/22 03:45:47;;;;;;;1.58;1.05;;;9.80;99.90;;;9.25;100.00;97739.16;5024399;27;129045;-71
2022/05/22 03:48:16;;;;;;;1.73;1.17;;;9.80;99.90;;;9.14;100.00;97753.16;5038400;27;119795;-74
2022/05/22 03:50:49;;;;;;;2.22;1.30;;;9.80;99.90;;;9.34;100.00;97735.16;5038349;27;120176;-73
2022/05/22 03:53:23;;;;;;;1.58;1.10;;;9.80;99.90;;;9.22;100.00;97735.22;5041031;27;129433;-72
2022/05/22 03:55:52;;;;;;;1.27;1.10;;;9.80;99.90;;;9.34;100.00;97754.09;5041658;27;129167;-74
2022/05/22 03:58:25;;;;;;;2.03;1.27;;;9.90;99.90;;;9.47;100.00;97737.81;5058209;27;119542;-72
2022/05/22 04:00:54;;;;;;;1.75;1.00;;;9.90;99.90;;;9.35;100.00;97747.56;5024552;27;118882;-75
2022/05/22 04:03:23;;;;;;;1.33;1.02;;;9.90;99.90;;;9.51;100.00;97757.66;5039781;27;129965;-75
2022/05/22 04:05:57;;;;;;;1.50;1.02;;;9.90;99.90;;;9.21;100.00;97762.63;5058061;27;128021;-71
2022/05/22 04:08:25;;;;;;;1.10;1.00;;;9.80;99.90;;;9.25;100.00;97756.19;5041237;27;119273;-74
2022/05/22 04:10:57;;;;;;;2.53;0.98;;;9.90;99.90;;;9.29;100.00;97759.78;5037967;27;119791;-75
2022/05/22 04:13:26;;;;;;;1.30;1.00;;;9.90;99.90;;;9.24;100.00;97757.31;5024361;27;129699;-74
2022/05/22 04:15:57;;;;;;;1.17;1.00;;;9.90;99.90;;;9.22;100.00;97764.97;5038057;27;131233;-72
2022/05/22 04:18:25;;;;;;;1.20;1.10;;;9.90;99.90;;;9.20;100.00;97771.91;5054663;27;119574;-71
2022/05/22 04:20:54;;;;;;;1.50;1.10;;;9.80;99.90;;;9.21;100.00;97768.84;5041252;27;119381;-73
2022/05/22 04:26:38;;;;;;;0.85;0.80;;;9.90;99.90;;;9.28;100.00;97777.13;5040400;27;129387;-75
2022/05/22 04:29:12;;;;;;;1.65;1.10;;;9.90;99.90;;;9.41;100.00;97777.91;5036461;27;122077;-72
2022/05/22 04:31:40;;;;;;;0.90;0.90;;;9.90;99.90;;;9.36;100.00;97775.41;5037524;27;122171;-70
2022/05/22 04:34:16;;;;;;;1.38;1.00;;;10.00;99.90;;;9.32;100.00;97788.09;5038364;27;130480;-72
2022/05/22 04:36:45;;;;;;;1.40;0.82;;;10.00;99.90;;;9.32;100.00;97786.16;5037002;27;129752;-72
2022/05/22 04:39:31;;;;;;;1.27;0.88;;;10.00;99.90;;;9.42;100.00;97784.09;5023188;27;119606;-74
2022/05/22 04:42:06;;;;;;;1.33;1.00;;;10.00;99.90;;;9.50;100.00;97791.25;5037367;27;120093;-75
2022/05/22 04:44:36;;;;;;;1.40;1.10;;;10.10;99.90;;;9.49;100.00;97798.59;5023169;27;129298;-73
2022/05/22 04:47:24;;;;;;;1.40;1.20;;;10.10;99.90;;;9.60;100.00;97798.91;5038928;27;130131;-77
2022/05/22 04:50:15;;;;;;;1.20;1.10;;;10.20;99.90;;;9.58;100.00;97798.44;5041188;27;119938;-72
2022/05/22 04:53:07;;;;;;;1.05;0.90;;;10.20;99.90;;;9.52;100.00;97810.66;5029928;27;119121;-73
2022/05/22 04:56:11;;;;;;;1.35;0.95;;;10.10;99.90;;;9.40;100.00;97814.22;4979955;28;129155;-73
2022/05/22 04:58:48;;;;;;;;;;;10.10;99.90;;;9.49;100.00;97816.75;5035078;27;129333;-72
2022/05/22 05:01:19;;;;;;;1.65;0.82;;;10.20;99.90;;;9.56;100.00;97816.97;5040381;27;119707;-73
2022/05/22 05:03:54;;;;;;;;;;;10.20;99.90;;;9.49;100.00;97817.56;5037692;27;119669;-74
2022/05/22 05:06:23;;;;;;;1.55;1.00;;;10.10;99.90;;;9.48;100.00;97812.50;5040353;27;130159;-74
2022/05/22 05:08:55;;;;;;;1.13;0.93;;;10.10;99.90;;;9.56;100.00;97822.38;5036734;27;129867;-75
2022/05/22 05:11:32;;;;;;;1.10;1.00;;;10.20;99.90;;;9.60;100.00;97817.84;5023466;27;119301;-75
2022/05/22 05:14:05;;;;;;;1.20;1.00;;;10.20;99.90;;;9.45;100.00;97827.50;5023768;27;118685;-75
2022/05/22 05:16:35;;;;;;;2.55;1.10;;;10.00;99.90;;;9.42;100.00;97824.69;5023027;27;129180;-74
2022/05/22 05:19:09;;;;;;;1.55;1.27;;;10.00;99.90;;;9.41;100.00;97831.25;5056822;27;129380;-72
2022/05/22 05:21:41;;;;;;;2.67;1.33;;;10.00;99.90;;;9.37;100.00;97833.84;5035364;27;122300;-74
2022/05/22 05:24:12;;;;;;;1.55;1.20;;;10.00;99.90;;;9.35;100.00;97839.63;5040160;27;121464;-74
2022/05/22 05:26:41;;;;;;;1.88;1.20;;;10.00;99.90;;;9.44;100.00;97842.19;5036665;27;131150;-76
2022/05/22 05:29:16;;;;;;;1.60;1.13;;;10.00;99.90;;;9.53;100.00;97840.09;5039834;27;129548;-73
2022/05/22 05:31:48;;;;;;;3.15;1.20;;;10.10;99.90;;;9.78;100.00;97836.50;5036747;27;120122;-75
2022/05/22 05:34:19;;;;;;;1.42;0.90;;;10.10;99.90;;;9.95;100.00;97838.09;5040195;27;119290;-74
2022/05/22 05:37:10;;;;;;;1.25;1.00;;;10.10;99.90;;;10.11;100.00;97846.25;5023773;27;130711;-73
2022/05/22 05:39:50;;;;;;;2.38;1.17;;;10.20;99.90;;;9.96;100.00;97856.72;5023209;27;129756;-75
2022/05/22 05:42:45;;;;;;;1.25;0.90;;;10.20;99.90;;;9.87;100.00;97847.97;5038207;27;120804;-71
2022/05/22 05:45:17;;;;;;;1.40;0.85;;;10.20;99.90;;;9.89;100.00;97861.94;5039893;27;119492;-68
2022/05/22 05:47:55;;;;;;;1.42;0.90;;;10.10;99.90;;;9.75;100.00;97870.47;5037007;27;130316;-70
2022/05/22 05:50:32;;;;;;;1.98;0.90;;;10.00;99.90;;;9.65;100.00;97866.34;5043220;27;130232;-74
2022/05/22 05:53:36;;;;;;;1.63;1.00;;;10.00;99.90;;;9.71;100.00;97875.03;5022291;27;120279;-72
2022/05/22 05:56:24;;;;;;;2.65;1.00;;;10.10;99.90;;;9.87;100.00;97877.78;5041966;27;120108;-73
2022/05/22 05:59:08;;;;;;;2.33;1.20;;;10.10;99.90;;;10.02;100.00;97882.44;5039920;27;130355;-72
2022/05/22 06:01:49;;;;;;;1.15;0.88;;;10.20;99.90;;;9.99;100.00;97883.13;5042968;27;129643;-71
2022/05/22 06:04:20;;;;;;;1.60;0.90;;;10.10;99.90;;;10.28;100.00;97878.44;5040162;27;119910;-72
2022/05/22 06:06:48;;;;;;;1.27;0.90;;;10.30;99.90;;;10.23;100.00;97876.78;5043525;27;119871;-72
2022/05/22 06:09:16;;;;;;;1.58;0.98;;;10.20;99.90;;;10.13;100.00;97882.72;5039417;27;129908;-73
2022/05/22 06:11:47;;;;;;;1.45;0.90;;;10.20;99.90;;;10.27;100.00;97887.72;5041158;27;129996;-72
2022/05/22 06:14:37;;;;;;;1.05;0.90;;;10.30;99.90;;;10.12;100.00;97888.50;5038373;27;122544;-73
2022/05/22 06:17:07;;;;;;;1.98;0.80;;;10.20;99.90;;;9.93;100.00;97895.38;5036747;27;120392;-73
2022/05/22 06:22:34;;;;;;;1.67;0.90;;;10.00;99.90;;;9.79;100.00;97905.81;5058491;27;129374;-70
2022/05/22 06:25:05;;;;;;;2.05;0.85;;;9.90;99.90;;;9.75;100.00;97904.91;5056026;27;119469;-72
2022/05/22 06:27:41;;;;;;;2.92;1.05;;;10.00;99.90;;;9.82;100.00;97913.25;5041620;27;119405;-77
2022/05/22 06:30:18;;;;;;;1.55;1.00;;;10.00;99.90;;;9.66;100.00;97913.19;5054754;27;130424;-73
2022/05/22 06:32:57;;;;;;;2.63;1.10;;;9.80;99.90;;;9.56;100.00;97914.47;5040101;27;130097;-75
2022/05/22 06:35:56;;;;;;;1.42;1.20;;;9.80;99.90;;;9.66;100.00;97927.53;5036367;27;120178;-71
2022/05/22 06:41:59;;;;;;;1.20;1.10;;;9.80;99.90;;;9.50;100.00;97922.03;5039265;27;130008;-71
2022/05/22 06:45:01;;;;;;;1.67;1.20;;;9.70;99.90;;;9.39;100.00;97925.56;4985222;27;129405;-80
2022/05/22 06:47:49;;;;;;;1.42;1.15;;;9.70;99.90;;;9.34;100.00;97930.06;5039116;27;119479;-72
2022/05/22 06:50:25;;;;;;;1.75;1.17;;;9.70;99.90;;;9.61;100.00;97938.59;5039847;27;119891;-72
2022/05/22 06:53:15;;;;;;;0.98;0.93;;;9.90;99.90;;;10.15;100.00;97931.94;5037419;27;130229;-71
2022/05/22 06:56:01;;;;;;;1.50;1.00;;;10.10;99.90;;;10.36;100.00;97939.91;5040761;27;128859;-73
2022/05/22 06:58:36;;;;;;;1.20;1.10;;;10.30;99.90;;;10.92;100.00;97940.88;5038598;27;120257;-70
2022/05/22 07:01:26;;;;;;;1.17;0.93;;;10.40;99.90;;;10.81;100.00;97937.13;5039985;27;119501;-73
2022/05/22 07:04:03;;;;;;;1.92;1.20;;;10.30;99.90;;;10.82;100.00;97939.47;5038538;27;130418;-71
2022/05/22 07:06:52;;;;;;;1.70;1.20;;;10.40;99.90;;;10.71;100.00;97939.22;5040866;27;129575;-76
2022/05/22 07:09:37;;;;;;;1.67;1.10;;;10.30;99.90;;;10.16;100.00;97946.28;5050645;27;122075;-71
2022/05/22 07:12:11;;;;;;;2.22;1.13;;;10.00;99.90;;;9.97;100.00;97945.03;5059096;27;122798;-71
2022/05/22 07:15:13;;;;;;;2.13;1.40;;;10.00;99.90;;;10.01;100.00;97948.63;5026906;27;130590;-70
2022/05/22 07:17:45;;;;;;;4.38;1.63;;;10.00;99.90;;;10.03;100.00;97954.47;5061401;27;129550;-69
2022/05/22 07:20:43;;;;;;;3.85;1.88;;;10.00;99.90;;;10.01;100.00;97961.38;5048037;27;120138;-71
2022/05/22 07:23:30;;;;;;;3.17;1.95;;;10.10;99.90;;;10.16;100.00;97957.13;5057375;27;119858;-71
2022/05/22 07:26:29;;;;;;;2.60;1.48;;;10.20;99.90;;;9.98;100.00;97962.06;5058432;27;130317;-72
2022/05/22 07:29:01;;;;;;;2.50;1.50;;;10.00;99.90;;;10.17;100.00;97964.13;5060083;27;130225;-70
2022/05/22 07:32:07;;;;;;;2.38;1.65;;;10.10;99.90;;;10.17;100.00;97974.97;5018891;28;119555;-71
2022/05/22 07:35:14;;;;;;;1.67;1.45;;;10.10;99.90;;;10.21;100.00;97970.44;4998372;28;119129;-74
2022/05/22 07:38:10;;;;;;;2.58;1.70;;;10.10;99.90;;;10.29;100.00;97966.78;4964557;28;129671;-72
2022/05/22 07:41:08;;;;;;;2.38;1.50;;;10.20;99.90;;;10.20;100.00;97968.88;5000650;27;128223;-70
2022/05/22 07:43:57;;;;;;;3.35;1.70;;;10.20;99.90;;;10.12;100.00;97973.31;5059347;27;119460;-73
2022/05/22 07:46:33;;;;;;;3.80;1.55;;;10.20;99.90;;;10.16;100.00;97968.78;5056808;27;120586;-70
2022/05/22 07:52:28;;;;;;;2.92;1.52;;;10.10;99.90;;;10.01;100.00;97983.06;5060246;27;128414;-72
2022/05/22 07:55:18;;;;;;;3.45;1.95;;;10.10;99.90;;;9.78;100.00;97982.78;5058751;27;119838;-75
2022/05/22 07:58:05;;;;;;;7.35;2.40;;;9.90;99.90;;;9.44;100.00;97987.59;5061556;27;119426;-70
2022/05/22 08:00:43;;;;;;;4.40;2.25;;;9.80;99.90;;;9.50;100.00;97988.94;5057537;27;129858;-71
2022/05/22 08:03:17;;;;;;;3.08;2.08;;;9.80;99.90;;;9.59;100.00;97989.59;5059787;27;129100;-72
2022/05/22 08:06:00;;;;;;;4.20;2.30;;;9.90;99.90;;;9.70;100.00;97996.13;5056049;27;122371;-72
2022/05/22 08:08:31;;;;;;;3.50;2.20;;;9.90;99.90;;;9.78;100.00;97999.06;5055696;27;122037;-71
2022/05/22 08:11:21;;;;;;;4.45;2.88;;;10.00;99.90;;;9.60;100.00;98007.44;5036912;27;130418;-71
2022/05/22 08:13:54;;;;;;;4.40;2.83;;;9.80;99.90;;;9.58;100.00;97998.84;5036441;27;130556;-73
2022/05/22 08:16:34;;;;;;;6.22;3.55;;;9.80;99.90;;;9.71;100.00;98011.25;5022961;27;119668;-71
2022/05/22 08:19:13;;;;;;;7.50;4.10;;;9.90;99.90;;;9.73;100.00;98010.13;5039045;27;121079;-69
2022/05/22 08:22:07;;;;;;;5.80;4.20;;;9.80;99.90;;;9.80;100.00;98024.69;5040040;27;129375;-73
2022/05/22 08:24:55;;;;;;;7.03;4.28;;;9.90;99.90;;;9.87;100.00;98021.38;5040651;27;129007;-71
2022/05/22 08:27:27;;;;;;;7.43;4.78;;;9.80;99.90;;;9.90;100.00;98020.69;5036506;27;120486;-71
2022/05/22 08:29:56;;;;;;;8.23;4.68;;;9.90;99.90;;;9.85;100.00;98031.78;5036971;27;120090;-72
2022/05/22 08:32:28;;;;;;;7.88;5.07;;;9.80;99.90;;;9.77;100.00;98027.25;5035079;27;129739;-72
2022/05/22 08:34:57;;;;;;;9.10;5.38;;;9.80;99.90;;;9.77;100.00;98043.53;5037445;27;130169;-75
2022/05/22 08:37:25;;;;;;;9.63;5.10;;;9.80;99.90;;;10.23;100.00;98038.66;5038043;27;119623;-75
2022/05/22 08:39:54;;;;;;;8.43;4.95;;;10.10;99.90;;;10.24;100.00;98037.53;5039825;27;119452;-72
2022/05/22 08:42:34;;;;;;;8.85;4.95;;;10.00;99.90;;;10.07;100.00;98044.81;5038914;27;130261;-69
2022/05/22 08:45:09;;;;;;;8.77;4.93;;;9.90;99.90;;;10.00;100.00;98041.09;5038025;27;129211;-71
2022/05/22 08:47:49;;;;;;;7.20;5.15;;;9.90;99.90;;;10.52;100.00;98050.34;5037430;27;119567;-74
2022/05/22 08:50:17;;;;;;;7.72;4.93;;;10.10;96.70;;;10.76;100.00;98050.19;5038914;27;119722;-72
2022/05/22 08:52:52;;;;;;;8.43;5.28;;;10.20;1.00;;;10.85;100.00;98046.56;5038034;27;130145;-73
2022/05/22 08:55:25;;;;;;;8.15;4.72;;;10.30;1.00;;;11.13;100.00;98052.69;5040024;27;129704;-71
2022/05/22 09:01:08;;;;;;;7.72;4.75;;;10.30;1.00;;;11.02;100.00;98056.28;5051370;27;103136;-69
2022/05/22 09:03:48;;;;;;;8.00;5.05;;;10.50;1.00;;;11.18;98.33;98064.44;5048236;27;130210;-69
2022/05/22 09:06:27;;;;;;;7.65;4.68;;;10.50;1.00;;;11.57;96.15;98059.16;5037799;27;129355;-70
2022/05/22 09:08:55;;;;;;;8.25;4.80;;;10.70;1.00;;;12.31;94.93;98070.09;5038274;27;119868;-70
2022/05/22 09:11:33;;;;;;;9.40;5.35;;;11.30;1.00;;;13.10;89.61;98068.06;5038273;27;119571;-69
2022/05/22 09:14:09;;;;;;;8.52;4.50;;;11.70;1.00;;;13.90;85.18;98062.72;5037617;27;129715;-69
2022/05/22 09:16:46;;;;;;;7.43;4.40;;;12.10;1.00;;;13.98;81.47;98071.78;5038151;27;130746;-71
2022/05/22 09:19:22;;;;;;;6.75;4.43;;;12.10;1.00;;;14.41;80.05;98066.06;5038034;27;120288;-74
2022/05/22 09:22:02;;;;;;;8.32;4.22;;;12.40;1.00;;;13.97;80.08;98068.25;5037043;27;119811;-71
2022/05/22 09:24:45;;;;;;;7.13;4.03;;;12.20;1.00;;;14.19;81.93;98068.53;5036669;27;130947;-72
2022/05/22 09:27:22;;;;;;;8.60;4.07;;;12.50;1.00;;;13.99;79.48;98076.88;5039645;27;128666;-71
2022/05/22 09:30:05;;;;;;;8.35;4.03;;;12.20;1.00;;;14.63;79.34;98078.84;5039800;27;119691;-73
2022/05/22 09:32:51;;;;;;;6.38;3.88;;;12.80;1.00;;;14.19;76.60;98087.63;5022669;27;118991;-72
2022/05/22 09:35:31;;;;;;;7.15;3.90;;;12.40;1.00;;;14.37;76.33;98090.59;5037484;27;130114;-70
2022/05/22 09:38:19;;;;;;;8.82;4.20;;;12.60;1.00;;;14.06;75.46;98091.75;5037483;27;129801;-73
2022/05/22 09:40:50;;;;;;;8.45;3.92;;;12.50;1.00;;;14.27;76.14;98091.25;5037883;27;119922;-72
2022/05/22 09:43:57;;;;;;;6.47;3.80;;;12.60;1.00;;;14.17;77.46;98098.13;5038302;27;119856;-71
2022/05/22 09:47:01;;;;;;;5.65;3.83;;;12.60;1.00;;;13.74;78.40;98113.88;5037846;27;130036;-67
2022/05/22 09:49:52;;;;;;;6.55;3.72;;;12.30;1.00;;;14.03;75.90;98107.69;5035168;27;130585;-72
2022/05/22 09:52:36;;;;;;;7.05;3.85;;;12.50;1.00;;;13.96;74.83;98121.25;5036875;27;122709;-70
2022/05/22 09:55:33;;;;;;;7.65;3.95;;;12.50;1.00;;;13.88;76.77;98119.53;5037638;27;122961;-71
2022/05/22 09:58:40;;;;;;;8.25;3.92;;;12.50;1.00;;;14.26;76.42;98123.19;5039442;27;130920;-69
2022/05/22 10:01:17;;;;;;;7.65;3.50;;;12.80;1.00;;;14.05;77.14;98125.63;5040792;27;129388;-72
2022/05/22 10:03:55;;;;;;;;;;;12.70;1.00;;;13.74;77.36;98132.97;5038296;27;121143;-73
2022/05/22 10:06:37;;;;;;;6.65;3.70;;;12.50;1.00;;;14.25;74.80;98138.00;5038103;27;120321;-72
2022/05/22 10:09:23;;;;;;;7.63;3.97;;;12.80;1.00;;;14.21;74.48;98137.19;5036601;27;130168;-72
2022/05/22 10:12:08;;;;;;;5.23;3.13;;;12.90;1.00;;;14.09;73.39;98145.56;5037762;27;129941;-71
2022/05/22 10:14:51;;;;;;;7.50;3.50;;;12.80;1.00;;;14.08;72.81;98133.06;5037617;27;119695;-71
2022/05/22 10:17:35;;;;;;;8.05;3.40;;;12.70;1.00;;;14.63;71.39;98147.09;5039554;27;118711;-73
2022/05/22 10:20:14;;;;;;;5.78;3.13;;;13.10;1.00;;;15.22;69.32;98149.28;5037966;27;129377;-76
2022/05/22 10:23:02;;;;;;;7.80;3.65;;;13.50;1.00;;;15.12;67.22;98150.00;5037447;27;129811;-71
2022/05/22 10:25:53;;;;;;;5.78;2.95;;;13.40;1.00;;;15.21;68.76;98142.28;5038990;27;119469;-74
2022/05/22 10:28:25;;;;;;;5.75;3.33;;;13.40;1.00;;;16.03;67.32;98150.38;5037746;27;119977;-73
2022/05/22 10:31:00;;;;;;;5.00;3.33;;;14.10;1.00;;;15.81;65.56;98152.97;5037188;27;130344;-73
2022/05/22 10:33:37;;;;;;;6.93;2.95;;;13.90;1.00;;;16.28;66.25;98152.50;5038205;27;129805;-74
2022/05/22 10:36:10;;;;;;;;;;;14.20;1.00;;;15.71;67.37;98148.19;5041616;27;119844;-70
2022/05/22 10:38:42;;;;;;;5.90;3.20;;;13.90;1.00;;;15.53;69.03;98158.97;5041685;27;119314;-74
2022/05/22 10:44:13;;;;;;;5.30;3.30;;;13.30;1.00;;;14.92;67.12;98163.81;5040584;27;130328;-71
2022/05/22 10:46:50;;;;;;;7.43;3.65;;;13.30;1.00;;;15.37;67.54;98161.94;5039413;27;122647;-74
2022/05/22 10:49:19;;;;;;;7.32;3.50;;;13.80;1.00;;;15.31;65.64;98168.91;5040834;27;121973;-71
2022/05/22 10:51:59;;;;;;;7.05;3.25;;;13.60;1.00;;;15.76;66.48;98161.50;5038850;27;130691;-73
2022/05/22 10:54:32;;;;;;;6.65;3.20;;;14.10;1.00;;;15.69;64.11;98177.88;5041387;27;130847;-70
2022/05/22 10:57:15;;;;;;;9.98;3.70;;;13.90;1.00;;;15.70;64.78;98173.94;5045341;27;119921;-74
2022/05/22 10:59:46;;;;;;;7.63;2.72;;;13.90;1.00;;;15.65;64.29;98171.56;5047087;27;119648;-70
2022/05/22 11:02:22;;;;;;;5.22;2.60;;;13.80;1.00;;;15.82;62.03;98175.66;5046827;27;129806;-75
2022/05/22 11:04:54;;;;;;;4.80;2.92;;;14.10;1.00;;;15.62;61.43;98188.72;5054523;27;131099;-71
2022/05/22 11:07:32;;;;;;;7.18;3.15;;;13.90;1.00;;;15.59;61.49;98189.47;5045667;27;118559;-71
2022/05/22 11:10:11;;;;;;;7.70;3.00;;;14.00;1.00;;;15.70;62.25;98190.34;5060890;27;120147;-70
2022/05/22 11:12:41;;;;;;;10.60;3.15;;;14.10;1.00;;;15.99;62.10;98185.16;5058969;27;130324;-70
2022/05/22 11:15:14;;;;;;;5.50;2.92;;;14.40;1.00;;;16.00;61.47;98197.66;5060006;27;129713;-72
2022/05/22 11:17:43;;;;;;;6.40;3.10;;;14.40;1.00;;;16.63;60.14;98198.47;5062413;27;119780;-69